createdAt,value
2018-10-21T00:00:35.434Z,9.40
2018-10-21T00:03:04.015Z,9.40
2018-10-21T00:05:33.142Z,9.40
2018-10-21T00:08:01.646Z,9.40
2018-10-21T00:10:30.150Z,9.40
2018-10-21T00:12:58.632Z,9.30
2018-10-21T00:15:27.251Z,9.30
2018-10-21T00:17:55.636Z,9.20
2018-10-21T00:20:24.160Z,9.20
2018-10-21T00:22:52.629Z,9.20
2018-10-21T00:25:21.107Z,9.10
2018-10-21T00:27:49.637Z,9.10
2018-10-21T00:30:18.141Z,9.10
2018-10-21T00:32:47.868Z,9.10
2018-10-21T00:35:16.808Z,9.10
2018-10-21T00:37:45.318Z,9.10
2018-10-21T00:40:13.803Z,9.10
2018-10-21T00:42:42.306Z,9.20
2018-10-21T00:45:11.592Z,9.10
2018-10-21T00:47:40.168Z,9.10
2018-10-21T00:50:10.153Z,9.10
2018-10-21T00:52:38.650Z,9.10
2018-10-21T00:55:07.989Z,9.10
2018-10-21T00:57:36.496Z,9.10
2018-10-21T01:00:06.979Z,9.00
2018-10-21T01:02:35.471Z,8.90
2018-10-21T01:05:04.441Z,8.90
2018-10-21T01:07:32.929Z,8.90
2018-10-21T01:10:01.464Z,8.80
2018-10-21T01:12:29.961Z,8.70
2018-10-21T01:14:58.500Z,8.70
2018-10-21T01:17:26.945Z,8.80
2018-10-21T01:19:55.439Z,8.70
2018-10-21T01:22:24.005Z,8.70
2018-10-21T01:24:52.600Z,8.70
2018-10-21T01:27:21.066Z,8.70
2018-10-21T01:29:49.560Z,8.70
2018-10-21T01:32:18.612Z,8.60
2018-10-21T01:34:47.114Z,8.70
2018-10-21T01:37:15.688Z,8.70
2018-10-21T01:40:53.228Z,8.70
2018-10-21T01:43:22.940Z,8.60
2018-10-21T01:45:51.440Z,8.60
2018-10-21T01:48:21.036Z,8.50
2018-10-21T01:50:49.569Z,8.50
2018-10-21T01:53:18.806Z,8.50
2018-10-21T01:55:47.350Z,8.50
2018-10-21T01:58:15.874Z,8.50
2018-10-21T02:00:44.596Z,8.40
2018-10-21T02:03:13.212Z,8.40
2018-10-21T02:05:42.497Z,8.40
2018-10-21T02:08:11.056Z,8.40
2018-10-21T02:10:39.630Z,8.40
2018-10-21T02:13:08.233Z,8.40
2018-10-21T02:15:36.748Z,8.40
2018-10-21T02:18:05.527Z,8.40
2018-10-21T02:20:34.021Z,8.40
2018-10-21T02:23:02.534Z,8.30
2018-10-21T02:25:31.039Z,8.20
2018-10-21T02:27:59.551Z,8.20
2018-10-21T02:30:30.023Z,8.20
2018-10-21T02:32:59.334Z,8.20
2018-10-21T02:35:27.800Z,8.30
2018-10-21T02:37:57.031Z,8.30
2018-10-21T02:41:50.625Z,8.30
2018-10-21T02:44:20.286Z,8.30
2018-10-21T02:46:50.197Z,8.20
2018-10-21T02:49:19.374Z,8.10
2018-10-21T02:51:53.338Z,8.00
2018-10-21T02:54:28.897Z,8.00
2018-10-21T02:56:57.509Z,8.00
2018-10-21T02:59:26.268Z,8.00
2018-10-21T03:01:54.907Z,8.10
2018-10-21T03:04:26.004Z,8.10
2018-10-21T03:06:54.504Z,8.20
2018-10-21T03:09:23.039Z,8.10
2018-10-21T03:11:51.560Z,8.10
2018-10-21T03:14:20.034Z,8.00
2018-10-21T03:16:48.591Z,7.90
2018-10-21T03:19:17.091Z,7.90
2018-10-21T03:21:45.584Z,7.90
2018-10-21T03:24:14.080Z,7.80
2018-10-21T03:26:42.629Z,7.80
2018-10-21T03:29:11.098Z,7.80
2018-10-21T03:31:39.583Z,7.80
2018-10-21T03:34:08.215Z,7.70
2018-10-21T03:36:36.591Z,7.70
2018-10-21T03:39:07.515Z,7.60
2018-10-21T03:41:36.229Z,7.60
2018-10-21T03:44:04.971Z,7.50
2018-10-21T03:46:33.446Z,7.50
2018-10-21T03:49:02.016Z,7.50
2018-10-21T03:51:30.494Z,7.40
2018-10-21T03:53:58.997Z,7.40
2018-10-21T03:56:27.475Z,7.40
2018-10-21T03:58:55.947Z,7.40
2018-10-21T04:01:24.429Z,7.40
2018-10-21T04:03:53.373Z,7.40
2018-10-21T04:06:21.867Z,7.40
2018-10-21T04:08:50.341Z,7.50
2018-10-21T04:11:18.854Z,7.50
2018-10-21T04:13:47.337Z,7.50
2018-10-21T04:16:15.871Z,7.50
2018-10-21T04:18:44.351Z,7.40
2018-10-21T04:21:12.828Z,7.30
2018-10-21T04:23:41.311Z,7.30
2018-10-21T04:26:09.802Z,7.30
2018-10-21T04:28:38.304Z,7.30
2018-10-21T04:31:06.819Z,7.30
2018-10-21T04:33:42.721Z,7.30
2018-10-21T04:36:12.970Z,7.40
2018-10-21T04:38:52.654Z,7.30
2018-10-21T04:41:21.218Z,7.20
2018-10-21T04:43:49.704Z,7.20
2018-10-21T04:46:18.192Z,7.20
2018-10-21T04:48:46.666Z,7.10
2018-10-21T04:51:15.152Z,7.10
2018-10-21T04:53:43.621Z,7.10
2018-10-21T04:56:12.129Z,7.10
2018-10-21T04:58:40.607Z,7.10
2018-10-21T05:01:09.099Z,7.10
2018-10-21T05:03:37.638Z,7.10
2018-10-21T05:06:06.294Z,7.20
2018-10-21T05:08:34.779Z,7.20
2018-10-21T05:11:03.267Z,7.30
2018-10-21T05:13:31.754Z,7.30
2018-10-21T05:16:00.411Z,7.30
2018-10-21T05:18:28.931Z,7.30
2018-10-21T05:20:57.376Z,7.30
2018-10-21T05:23:25.845Z,7.20
2018-10-21T05:25:54.360Z,7.10
2018-10-21T05:28:22.827Z,7.10
2018-10-21T05:30:51.361Z,7.00
2018-10-21T05:33:19.827Z,7.00
2018-10-21T05:35:48.315Z,6.90
2018-10-21T05:38:16.837Z,6.90
2018-10-21T05:40:45.353Z,6.90
2018-10-21T05:43:13.837Z,6.90
2018-10-21T05:45:42.344Z,7.00
2018-10-21T05:48:10.809Z,7.00
2018-10-21T05:50:39.309Z,7.00
2018-10-21T05:53:07.807Z,7.00
2018-10-21T05:55:36.279Z,7.00
2018-10-21T05:58:05.090Z,7.00
2018-10-21T06:00:33.544Z,6.90
2018-10-21T06:03:02.155Z,7.00
2018-10-21T06:05:51.602Z,7.00
2018-10-21T06:08:20.092Z,6.90
2018-10-21T06:10:48.592Z,6.90
2018-10-21T06:13:17.106Z,6.90
2018-10-21T06:15:45.625Z,6.90
2018-10-21T06:18:16.484Z,6.90
2018-10-21T06:20:48.520Z,6.80
2018-10-21T06:23:17.017Z,6.80
2018-10-21T06:25:45.496Z,6.80
2018-10-21T06:28:13.997Z,6.80
2018-10-21T06:30:42.475Z,6.80
2018-10-21T06:33:11.090Z,6.90
2018-10-21T06:35:39.526Z,6.90
2018-10-21T06:38:08.019Z,6.90
2018-10-21T06:40:36.512Z,6.90
2018-10-21T06:43:05.271Z,6.90
2018-10-21T06:45:33.796Z,6.90
2018-10-21T06:48:02.263Z,6.90
2018-10-21T06:50:30.735Z,6.90
2018-10-21T06:52:59.288Z,7.00
2018-10-21T06:55:27.962Z,7.00
2018-10-21T06:57:56.447Z,7.00
2018-10-21T07:00:25.027Z,7.10
2018-10-21T07:02:53.512Z,7.10
2018-10-21T07:05:33.287Z,7.10
2018-10-21T07:08:01.764Z,7.10
2018-10-21T07:10:30.257Z,7.20
2018-10-21T07:12:58.776Z,7.20
2018-10-21T07:15:28.184Z,7.20
2018-10-21T07:17:56.696Z,7.20
2018-10-21T07:20:25.213Z,7.20
2018-10-21T07:22:53.706Z,7.30
2018-10-21T07:25:22.183Z,7.30
2018-10-21T07:27:50.680Z,7.40
2018-10-21T07:30:19.173Z,7.40
2018-10-21T07:32:47.667Z,7.40
2018-10-21T07:35:16.148Z,7.40
2018-10-21T07:37:44.636Z,7.50
2018-10-21T07:40:13.879Z,7.50
2018-10-21T07:42:42.720Z,7.60
2018-10-21T07:45:11.382Z,7.90
2018-10-21T07:47:40.001Z,8.40
2018-10-21T07:50:08.540Z,8.70
2018-10-21T07:52:37.035Z,9.20
2018-10-21T07:55:05.679Z,9.60
2018-10-21T07:57:34.159Z,9.90
2018-10-21T08:00:02.691Z,10.20
2018-10-21T08:02:31.214Z,10.50
2018-10-21T08:04:59.795Z,10.80
2018-10-21T08:07:39.593Z,11.00
2018-10-21T08:10:08.260Z,11.30
2018-10-21T08:12:36.775Z,11.50
2018-10-21T08:15:05.559Z,11.70
2018-10-21T08:17:34.043Z,11.90
2018-10-21T08:20:02.563Z,12.10
2018-10-21T08:22:31.069Z,12.20
2018-10-21T08:24:59.583Z,12.30
2018-10-21T08:27:28.084Z,12.30
2018-10-21T08:29:56.622Z,12.50
2018-10-21T08:32:25.108Z,12.50
2018-10-21T08:34:53.611Z,12.50
2018-10-21T08:37:22.134Z,12.40
2018-10-21T08:39:50.648Z,12.50
2018-10-21T08:42:19.190Z,12.60
2018-10-21T08:44:47.707Z,12.70
2018-10-21T08:47:16.250Z,12.70
2018-10-21T08:49:44.763Z,12.60
2018-10-21T08:52:13.441Z,12.40
2018-10-21T08:54:41.918Z,12.30
2018-10-21T08:57:10.402Z,12.30
2018-10-21T08:59:38.897Z,12.40
2018-10-21T09:02:07.550Z,12.40
2018-10-21T09:04:36.037Z,12.40
2018-10-21T09:07:04.619Z,12.50
2018-10-21T09:09:33.072Z,12.40
2018-10-21T09:12:01.671Z,12.50
2018-10-21T09:14:30.176Z,12.30
2018-10-21T09:16:58.719Z,12.30
2018-10-21T09:19:27.254Z,12.40
2018-10-21T09:21:55.903Z,12.40
2018-10-21T09:24:24.436Z,12.40
2018-10-21T09:26:52.984Z,12.40
2018-10-21T09:29:21.466Z,12.40
2018-10-21T09:31:49.981Z,12.40
2018-10-21T09:34:18.567Z,12.50
2018-10-21T09:36:47.005Z,12.50
2018-10-21T09:39:18.799Z,12.50
2018-10-21T09:41:47.317Z,12.40
2018-10-21T09:44:15.813Z,12.40
2018-10-21T09:46:44.345Z,12.30
2018-10-21T09:49:13.281Z,12.40
2018-10-21T09:51:41.738Z,12.40
2018-10-21T09:54:10.316Z,12.40
2018-10-21T09:56:38.810Z,12.40
2018-10-21T09:59:08.122Z,12.40
2018-10-21T10:01:41.969Z,12.50
2018-10-21T10:04:11.093Z,12.50
2018-10-21T10:06:39.560Z,12.50
2018-10-21T10:09:10.583Z,12.50
2018-10-21T10:11:39.119Z,12.60
2018-10-21T10:14:07.778Z,12.60
2018-10-21T10:16:36.525Z,12.60
2018-10-21T10:19:05.406Z,12.70
2018-10-21T10:21:34.007Z,12.60
2018-10-21T10:24:02.590Z,12.60
2018-10-21T10:26:31.079Z,12.60
2018-10-21T10:28:59.831Z,12.60
2018-10-21T10:31:28.451Z,12.60
2018-10-21T10:33:57.231Z,12.70
2018-10-21T10:36:25.733Z,12.60
2018-10-21T10:38:54.260Z,12.60
2018-10-21T10:41:22.790Z,12.70
2018-10-21T10:43:51.275Z,12.70
2018-10-21T10:46:19.810Z,12.70
2018-10-21T10:48:48.388Z,12.70
2018-10-21T10:51:16.895Z,12.80
2018-10-21T10:53:45.463Z,12.90
2018-10-21T10:56:14.003Z,13.00
2018-10-21T10:58:42.574Z,13.00
2018-10-21T11:01:11.208Z,13.00
2018-10-21T11:03:39.632Z,12.90
2018-10-21T11:06:08.280Z,13.00
2018-10-21T11:08:36.797Z,13.00
2018-10-21T11:11:05.482Z,13.00
2018-10-21T11:13:34.024Z,13.00
2018-10-21T11:16:02.568Z,13.00
2018-10-21T11:18:31.051Z,13.10
2018-10-21T11:20:59.573Z,13.10
2018-10-21T11:23:28.134Z,13.20
2018-10-21T11:25:56.641Z,13.10
2018-10-21T11:28:25.152Z,13.10
2018-10-21T11:30:53.709Z,13.20
2018-10-21T11:33:22.257Z,13.30
2018-10-21T11:35:50.792Z,13.40
2018-10-21T11:38:19.332Z,13.40
2018-10-21T11:40:47.847Z,13.40
2018-10-21T11:43:16.403Z,13.40
2018-10-21T11:45:45.209Z,13.40
2018-10-21T11:48:13.675Z,13.50
2018-10-21T11:50:42.607Z,13.50
2018-10-21T11:53:11.153Z,13.40
2018-10-21T11:55:40.853Z,13.40
2018-10-21T11:58:11.207Z,13.40
2018-10-21T12:00:39.727Z,13.40
2018-10-21T12:03:09.248Z,13.50
2018-10-21T12:05:37.763Z,13.50
2018-10-21T12:08:06.280Z,13.50
2018-10-21T12:10:34.782Z,13.60
2018-10-21T12:13:03.373Z,13.50
2018-10-21T12:15:31.845Z,13.60
2018-10-21T12:18:00.352Z,13.60
2018-10-21T12:20:28.868Z,13.70
2018-10-21T12:22:57.438Z,13.80
2018-10-21T12:25:25.892Z,13.80
2018-10-21T12:27:54.443Z,13.80
2018-10-21T12:30:22.936Z,13.90
2018-10-21T12:32:51.473Z,14.00
2018-10-21T12:35:20.123Z,14.20
2018-10-21T12:37:48.530Z,14.30
2018-10-21T12:40:17.144Z,14.40
2018-10-21T12:42:45.578Z,14.40
2018-10-21T12:45:14.190Z,14.40
2018-10-21T12:47:42.662Z,14.30
2018-10-21T12:50:11.173Z,14.40
2018-10-21T12:52:39.693Z,14.30
2018-10-21T12:55:09.025Z,14.10
2018-10-21T12:57:37.544Z,14.00
2018-10-21T13:00:07.087Z,14.20
2018-10-21T13:02:35.594Z,14.40
2018-10-21T13:05:04.473Z,14.80
2018-10-21T13:07:32.979Z,14.80
2018-10-21T13:10:01.534Z,14.80
2018-10-21T13:12:30.011Z,14.60
2018-10-21T13:14:58.509Z,14.50
2018-10-21T13:17:27.007Z,14.50
2018-10-21T13:19:55.542Z,14.60
2018-10-21T13:22:24.044Z,14.60
2018-10-21T13:24:52.563Z,14.50
2018-10-21T13:27:21.068Z,14.30
2018-10-21T13:29:49.607Z,14.10
2018-10-21T13:32:18.114Z,14.20
2018-10-21T13:34:46.733Z,14.40
2018-10-21T13:37:15.222Z,14.80
2018-10-21T13:39:43.676Z,15.10
2018-10-21T13:42:12.192Z,14.90
2018-10-21T13:44:40.690Z,14.80
2018-10-21T13:47:09.217Z,14.70
2018-10-21T13:49:37.722Z,14.50
2018-10-21T13:52:06.627Z,14.40
2018-10-21T13:54:34.884Z,14.50
2018-10-21T13:57:03.448Z,14.90
2018-10-21T13:59:32.140Z,15.20
2018-10-21T14:02:00.633Z,15.20
2018-10-21T14:04:29.162Z,15.10
2018-10-21T14:06:57.834Z,15.00
2018-10-21T14:09:26.236Z,14.90
2018-10-21T14:11:54.754Z,14.50
2018-10-21T14:14:23.292Z,14.40
2018-10-21T14:16:51.776Z,14.20
2018-10-21T14:19:20.275Z,14.10
2018-10-21T14:21:48.798Z,14.20
2018-10-21T14:24:17.424Z,14.20
2018-10-21T14:26:45.888Z,14.20
2018-10-21T14:29:14.376Z,14.00
2018-10-21T14:31:42.896Z,14.00
2018-10-21T14:34:11.407Z,13.90
2018-10-21T14:36:39.920Z,13.80
2018-10-21T14:39:12.069Z,13.70
2018-10-21T14:41:40.896Z,13.70
2018-10-21T14:44:09.384Z,13.60
2018-10-21T14:46:39.203Z,13.60
2018-10-21T14:49:08.719Z,13.60
2018-10-21T14:51:37.227Z,13.60
2018-10-21T14:54:05.932Z,13.50
2018-10-21T14:56:34.418Z,13.50
2018-10-21T14:59:02.953Z,13.50
2018-10-21T15:01:31.536Z,13.50
2018-10-21T15:04:00.125Z,13.40
2018-10-21T15:06:28.599Z,13.40
2018-10-21T15:08:57.179Z,13.30
2018-10-21T15:11:25.701Z,13.30
2018-10-21T15:13:54.287Z,13.30
2018-10-21T15:16:22.784Z,13.30
2018-10-21T15:18:51.307Z,13.20
2018-10-21T15:21:19.813Z,13.30
2018-10-21T15:23:48.321Z,13.20
2018-10-21T15:26:16.878Z,13.20
2018-10-21T15:28:45.324Z,13.10
2018-10-21T15:31:13.854Z,13.10
2018-10-21T15:36:35.474Z,13.10
2018-10-21T15:39:05.443Z,13.10
2018-10-21T15:41:33.956Z,13.10
2018-10-21T15:44:02.536Z,13.00
2018-10-21T15:46:31.026Z,12.90
2018-10-21T15:48:59.628Z,12.90
2018-10-21T15:51:28.119Z,12.90
2018-10-21T15:53:56.748Z,12.90
2018-10-21T15:56:25.288Z,12.80
2018-10-21T15:58:53.876Z,12.80
2018-10-21T16:01:22.422Z,12.80
2018-10-21T16:03:51.314Z,12.70
2018-10-21T16:06:19.920Z,12.70
2018-10-21T16:08:48.572Z,12.70
2018-10-21T16:11:17.119Z,12.70
2018-10-21T16:13:45.752Z,12.60
2018-10-21T16:16:14.460Z,12.60
2018-10-21T16:18:42.995Z,12.50
2018-10-21T16:21:11.521Z,12.50
2018-10-21T16:23:40.065Z,12.50
2018-10-21T16:26:08.720Z,12.50
2018-10-21T16:28:37.158Z,12.50
2018-10-21T16:31:05.956Z,12.50
2018-10-21T16:33:34.527Z,12.50
2018-10-21T16:36:03.071Z,12.50
2018-10-21T16:38:31.638Z,12.60
2018-10-21T16:41:00.193Z,12.60
2018-10-21T16:43:28.719Z,12.60
2018-10-21T16:45:57.210Z,12.60
2018-10-21T16:48:25.757Z,12.50
2018-10-21T16:50:54.360Z,12.50
2018-10-21T16:53:22.936Z,12.40
2018-10-21T16:55:51.429Z,12.40
2018-10-21T16:58:20.019Z,12.40
2018-10-21T17:00:48.656Z,12.40
2018-10-21T17:03:17.207Z,12.40
2018-10-21T17:05:45.808Z,12.40
2018-10-21T17:08:14.349Z,12.30
2018-10-21T17:10:45.067Z,12.30
2018-10-21T17:13:13.615Z,12.30
2018-10-21T17:15:42.133Z,12.40
2018-10-21T17:18:10.695Z,12.40
2018-10-21T17:20:39.244Z,12.30
2018-10-21T17:23:07.798Z,12.40
2018-10-21T17:25:36.328Z,12.40
2018-10-21T17:28:04.939Z,12.40
2018-10-21T17:30:33.555Z,12.40
2018-10-21T17:33:02.062Z,12.40
2018-10-21T17:35:30.641Z,12.40
2018-10-21T17:37:59.177Z,12.40
2018-10-21T17:40:27.820Z,12.30
2018-10-21T17:42:56.393Z,12.30
2018-10-21T17:45:24.913Z,12.30
2018-10-21T17:47:53.486Z,12.20
2018-10-21T17:50:22.041Z,12.20
2018-10-21T17:52:50.572Z,12.20
2018-10-21T17:55:19.196Z,12.20
2018-10-21T17:57:47.683Z,12.20
2018-10-21T18:00:16.381Z,12.20
2018-10-21T18:02:44.939Z,12.20
2018-10-21T18:05:14.548Z,12.20
2018-10-21T18:07:43.397Z,12.20
2018-10-21T18:10:12.468Z,12.20
2018-10-21T18:12:40.925Z,12.20
2018-10-21T18:15:10.163Z,12.20
2018-10-21T18:17:39.396Z,12.20
2018-10-21T18:20:09.010Z,12.10
2018-10-21T18:22:37.552Z,12.10
2018-10-21T18:25:07.300Z,12.10
2018-10-21T18:27:35.760Z,12.10
2018-10-21T18:30:04.708Z,12.10
2018-10-21T18:32:33.234Z,12.00
2018-10-21T18:35:01.763Z,12.00
2018-10-21T18:37:30.297Z,12.00
2018-10-21T18:39:58.864Z,12.00
2018-10-21T18:42:27.367Z,12.00
2018-10-21T18:44:55.945Z,12.00
2018-10-21T18:47:24.471Z,11.90
2018-10-21T18:49:52.948Z,11.90
2018-10-21T18:52:21.493Z,11.90
2018-10-21T18:54:50.006Z,12.00
2018-10-21T18:57:18.590Z,12.00
2018-10-21T18:59:47.100Z,12.10
2018-10-21T19:02:15.629Z,12.10
2018-10-21T19:04:44.170Z,12.20
2018-10-21T19:07:12.739Z,12.20
2018-10-21T19:09:41.222Z,12.20
2018-10-21T19:12:09.730Z,12.20
2018-10-21T19:14:38.228Z,12.20
2018-10-21T19:17:06.787Z,12.20
2018-10-21T19:19:35.287Z,12.10
2018-10-21T19:22:03.919Z,12.10
2018-10-21T19:24:32.388Z,12.00
2018-10-21T19:27:01.032Z,11.80
2018-10-21T19:29:29.578Z,11.80
2018-10-21T19:31:58.077Z,11.80
2018-10-21T19:34:26.655Z,11.80
2018-10-21T19:36:55.156Z,11.80
2018-10-21T19:39:23.642Z,11.70
2018-10-21T19:41:52.149Z,11.60
2018-10-21T19:44:20.653Z,11.50
2018-10-21T19:46:49.173Z,11.50
2018-10-21T19:49:17.762Z,11.40
2018-10-21T19:51:46.184Z,11.30
2018-10-21T19:54:14.698Z,11.10
2018-10-21T19:56:43.230Z,11.00
2018-10-21T19:59:11.753Z,10.90
2018-10-21T20:01:40.251Z,10.90
2018-10-21T20:04:08.907Z,10.70
2018-10-21T20:06:37.331Z,10.70
2018-10-21T20:09:08.922Z,10.60
2018-10-21T20:11:37.990Z,10.50
2018-10-21T20:14:06.573Z,10.40
2018-10-21T20:16:35.098Z,10.40
2018-10-21T20:19:03.775Z,10.40
2018-10-21T20:21:32.181Z,10.20
2018-10-21T20:24:00.704Z,10.20
2018-10-21T20:26:29.222Z,10.10
2018-10-21T20:28:57.732Z,10.00
2018-10-21T20:31:26.559Z,10.00
2018-10-21T20:33:55.124Z,10.00
2018-10-21T20:36:23.587Z,10.00
2018-10-21T20:38:52.103Z,10.00
2018-10-21T20:41:20.585Z,9.90
2018-10-21T20:43:49.119Z,9.90
2018-10-21T20:46:17.664Z,9.80
2018-10-21T20:48:46.121Z,9.80
2018-10-21T20:51:14.641Z,9.70
2018-10-21T20:53:43.089Z,9.70
2018-10-21T20:56:11.605Z,9.60
2018-10-21T20:58:40.099Z,9.60
2018-10-21T21:01:08.627Z,9.50
2018-10-21T21:03:37.108Z,9.50
2018-10-21T21:06:05.651Z,9.40
2018-10-21T21:08:34.159Z,9.30
2018-10-21T21:11:02.656Z,9.30
2018-10-21T21:13:31.155Z,9.20
2018-10-21T21:15:59.674Z,9.20
2018-10-21T21:18:28.153Z,9.20
2018-10-21T21:20:56.673Z,9.10
2018-10-21T21:23:25.171Z,9.10
2018-10-21T21:25:53.683Z,9.10
2018-10-21T21:28:22.192Z,9.10
2018-10-21T21:30:50.670Z,9.10
2018-10-21T21:33:19.240Z,9.00
2018-10-21T21:35:47.748Z,9.00
2018-10-21T21:38:16.242Z,9.00
2018-10-21T21:40:44.785Z,9.00
2018-10-21T21:43:13.258Z,9.00
2018-10-21T21:45:41.756Z,8.90
2018-10-21T21:48:10.326Z,8.90
2018-10-21T21:50:38.780Z,8.90
2018-10-21T21:53:07.515Z,8.90
2018-10-21T21:55:35.994Z,8.90
2018-10-21T21:58:04.560Z,8.90
2018-10-21T22:00:33.130Z,8.90
2018-10-21T22:03:01.642Z,8.80
2018-10-21T22:05:30.159Z,8.80
2018-10-21T22:07:58.617Z,8.80
2018-10-21T22:10:27.111Z,8.90
2018-10-21T22:12:55.613Z,8.90
2018-10-21T22:15:24.121Z,8.90
2018-10-21T22:17:52.623Z,8.90
2018-10-21T22:20:21.087Z,9.00
2018-10-21T22:22:49.556Z,9.00
2018-10-21T22:25:18.059Z,9.10
2018-10-21T22:27:46.571Z,9.20
2018-10-21T22:30:15.180Z,9.20
2018-10-21T22:32:43.608Z,9.20
2018-10-21T22:35:12.115Z,9.30
2018-10-21T22:37:40.614Z,9.30
2018-10-21T22:40:09.174Z,9.30
2018-10-21T22:42:37.743Z,9.30
2018-10-21T22:45:07.662Z,9.30
2018-10-21T22:47:36.184Z,9.30
2018-10-21T22:50:05.414Z,9.30
2018-10-21T22:52:33.908Z,9.30
2018-10-21T22:55:02.437Z,9.30
2018-10-21T22:57:30.919Z,9.30
2018-10-21T22:59:59.505Z,9.30
2018-10-21T23:02:27.980Z,9.30
2018-10-21T23:04:56.455Z,9.40
2018-10-21T23:07:24.957Z,9.40
2018-10-21T23:09:53.453Z,9.40
2018-10-21T23:12:21.952Z,9.40
2018-10-21T23:14:50.430Z,9.50
2018-10-21T23:17:18.917Z,9.50
2018-10-21T23:19:48.722Z,9.50
2018-10-21T23:22:17.310Z,9.40
2018-10-21T23:24:45.796Z,9.40
2018-10-21T23:27:14.603Z,9.50
2018-10-21T23:29:43.776Z,9.50
2018-10-21T23:32:12.360Z,9.60
2018-10-21T23:34:40.847Z,9.50
2018-10-21T23:37:09.352Z,9.40
2018-10-21T23:39:37.836Z,9.40
2018-10-21T23:42:06.348Z,9.40
2018-10-21T23:44:34.837Z,9.40
2018-10-21T23:47:03.323Z,9.40
2018-10-21T23:49:31.834Z,9.40
2018-10-21T23:52:00.350Z,9.40
2018-10-21T23:54:28.836Z,9.40
2018-10-21T23:56:57.356Z,9.40
2018-10-21T23:59:25.848Z,9.50
